Time;durP1;ratioP1;P1;durP2;ratioP2;P2;SDS_P1;SDS_P2;PMS_P1;PMS_P2;Temp;Humidity;BMP_temperature;BMP_pressure;BME280_temperature;BME280_humidity;BME280_pressure;Samples;Min_cycle;Max_cycle;Signal;HPM_P1;HPM_P2
2022/01/19 00:01:22;;;;;;;;;;;-2.40;94.80;;;;;;5064194;28;20200;-79
2022/01/19 00:03:48;;;;;;;;;;;-2.40;94.70;;;;;;5063474;28;19932;-79
2022/01/19 00:06:14;;;;;;;;;;;-2.50;94.50;;;;;;5063298;28;19911;-79
2022/01/19 00:08:39;;;;;;;;;;;-2.50;94.70;;;;;;5061901;28;20257;-79
2022/01/19 00:11:05;;;;;;;;;;;-2.40;94.80;;;;;;5076548;28;20333;-79
2022/01/19 00:13:31;;;;;;;;;;;-2.50;94.80;;;;;;5083909;28;19919;-79
2022/01/19 00:15:59;;;;;;;;;;;-2.60;95.10;;;;;;5082849;28;20536;-79
2022/01/19 00:18:25;;;;;;;;;;;-2.60;95.50;;;;;;5082883;28;19927;-79
2022/01/19 00:20:51;;;;;;;;;;;-5.30;94.30;;;;;;5083872;28;20493;-80
2022/01/19 00:23:18;;;;;;;;;;;-2.70;95.10;;;;;;5071639;28;19908;-80
2022/01/19 00:25:45;;;;;;;;;;;-2.70;95.50;;;;;;5091445;28;19942;-79
2022/01/19 00:28:11;;;;;;;;;;;-1.00;95.70;;;;;;5092233;28;19960;-79
2022/01/19 00:30:36;;;;;;;;;;;-2.80;95.40;;;;;;5089032;28;20007;-79
2022/01/19 00:33:02;;;;;;;;;;;-2.80;95.50;;;;;;5083583;28;20281;-79
2022/01/19 00:35:27;;;;;;;;;;;-2.80;95.70;;;;;;5064690;28;20339;-79
2022/01/19 00:37:56;;;;;;;;;;;-1.60;96.10;;;;;;5064466;28;19911;-79
2022/01/19 00:40:22;;;;;;;;;;;-4.40;95.10;;;;;;5082216;28;19904;-79
2022/01/19 00:42:49;;;;;;;;;;;-2.80;95.50;;;;;;5062854;28;19914;-79
2022/01/19 00:45:15;;;;;;;;;;;-0.50;96.00;;;;;;5062721;28;19965;-79
2022/01/19 00:47:41;;;;;;;;;;;-3.00;95.50;;;;;;5081895;28;19912;-79
2022/01/19 00:50:09;;;;;;;;;;;-3.00;95.90;;;;;;5081529;28;19982;-79
2022/01/19 00:52:35;;;;;;;;;;;-3.10;96.20;;;;;;5081438;28;19912;-79
2022/01/19 00:55:03;;;;;;;;;;;-3.10;96.10;;;;;;5082001;28;20208;-79
2022/01/19 00:57:29;;;;;;;;;;;-3.10;95.80;;;;;;5063701;28;19907;-79
2022/01/19 00:59:55;;;;;;;;;;;-3.10;95.90;;;;;;5083211;28;20014;-80
2022/01/19 01:02:20;;;;;;;;;;;-2.20;96.20;;;;;;5064665;28;19997;-79
2022/01/19 01:04:46;;;;;;;;;;;-1.30;96.20;;;;;;5067003;28;19933;-79
2022/01/19 01:07:12;;;;;;;;;;;-3.00;96.00;;;;;;5085426;28;19904;-79
2022/01/19 01:09:37;;;;;;;;;;;-3.10;95.80;;;;;;5081936;28;20390;-79
2022/01/19 01:12:19;;;;;;;;;;;-3.10;95.80;;;;;;5063969;28;20188;-79
2022/01/19 01:20:14;;;;;;;;;;;-1.60;96.20;;;;;;5081465;28;20440;-79
2022/01/19 01:22:40;;;;;;;;;;;-2.70;96.00;;;;;;5062973;28;20075;-79
2022/01/19 01:25:06;;;;;;;;;;;-3.20;96.00;;;;;;5062607;28;19908;-80
2022/01/19 01:27:32;;;;;;;;;;;-3.20;96.10;;;;;;5080907;28;19904;-79
2022/01/19 01:29:57;;;;;;;;;;;-3.30;96.10;;;;;;5080532;28;19943;-80
2022/01/19 01:32:23;;;;;;;;;;;-3.30;96.40;;;;;;5080274;28;19912;-80
2022/01/19 01:34:52;;;;;;;;;;;-3.30;96.40;;;;;;5081298;28;19911;-79
2022/01/19 01:37:19;;;;;;;;;;;-3.30;96.30;;;;;;5081650;28;20339;-79
2022/01/19 01:39:44;;;;;;;;;;;-3.40;96.40;;;;;;5081013;28;19908;-79
2022/01/19 01:42:14;;;;;;;;;;;-3.30;96.60;;;;;;5081402;28;19914;-79
2022/01/19 01:44:42;;;;;;;;;;;-3.30;96.30;;;;;;5081023;28;19982;-80
2022/01/19 01:47:08;;;;;;;;;;;-3.30;96.30;;;;;;5080421;28;19908;-79
2022/01/19 01:54:53;;;;;;;;;;;-3.30;96.40;;;;;;5081399;28;19910;-80
2022/01/19 01:57:19;;;;;;;;;;;-3.30;96.10;;;;;;5063071;28;19904;-80
2022/01/19 01:59:46;;;;;;;;;;;-3.30;95.90;;;;;;5062778;28;19911;-80
2022/01/19 02:02:11;;;;;;;;;;;-3.30;96.10;;;;;;5081020;28;20283;-79
2022/01/19 02:04:41;;;;;;;;;;;-3.40;96.10;;;;;;5083352;28;19995;-79
2022/01/19 02:07:32;;;;;;;;;;;-4.90;95.90;;;;;;5088045;28;19939;-80
2022/01/19 02:10:02;;;;;;;;;;;-3.40;96.50;;;;;;5067206;28;19916;-79
2022/01/19 02:23:32;;;;;;;;;;;-3.50;96.40;;;;;;5080298;28;19931;-79
2022/01/19 02:26:01;;;;;;;;;;;-3.50;96.50;;;;;;5061912;28;20172;-79
2022/01/19 02:40:06;;;;;;;;;;;-3.60;96.30;;;;;;5080014;28;19927;-79
2022/01/19 02:42:26;;;;;;;;;;;-3.70;96.30;;;;;;5079355;28;20178;-79
2022/01/19 02:49:55;;;;;;;;;;;-3.70;96.40;;;;;;5080091;28;20199;-79
2022/01/19 02:52:22;;;;;;;;;;;-3.70;96.60;;;;;;5080666;28;20015;-78
2022/01/19 02:54:49;;;;;;;;;;;-3.70;96.70;;;;;;5061991;28;19904;-79
2022/01/19 02:57:15;;;;;;;;;;;-3.80;96.80;;;;;;5062550;28;19904;-79
2022/01/19 03:10:48;;;;;;;;;;;-4.00;96.80;;;;;;5037700;28;20158;-79
2022/01/19 03:13:13;;;;;;;;;;;-3.90;96.80;;;;;;5005004;28;19917;-79
2022/01/19 03:15:39;;;;;;;;;;;-3.80;96.90;;;;;;5019930;28;20007;-80
2022/01/19 03:18:05;;;;;;;;;;;-3.80;96.70;;;;;;5019047;28;19908;-79
2022/01/19 03:20:30;;;;;;;;;;;-3.90;96.80;;;;;;5017356;28;20114;-79
2022/01/19 03:23:16;;;;;;;;;;;-3.90;96.80;;;;;;5017263;28;19971;-78
2022/01/19 03:25:42;;;;;;;;;;;-3.90;97.00;;;;;;5016809;28;19936;-79
2022/01/19 03:28:08;;;;;;;;;;;-3.90;97.10;;;;;;5017531;28;19913;-79
2022/01/19 03:30:33;;;;;;;;;;;-3.90;96.60;;;;;;5017177;28;19935;-79
2022/01/19 03:32:59;;;;;;;;;;;-3.80;96.70;;;;;;5017012;28;20399;-79
2022/01/19 03:35:25;;;;;;;;;;;-3.80;96.70;;;;;;5017466;28;19905;-78
2022/01/19 03:37:51;;;;;;;;;;;-4.10;96.40;;;;;;5017703;28;19969;-79
2022/01/19 03:40:16;;;;;;;;;;;-3.60;96.30;;;;;;5001385;28;20202;-79
2022/01/19 03:42:43;;;;;;;;;;;-3.80;96.40;;;;;;5031256;28;19905;-79
2022/01/19 03:45:10;;;;;;;;;;;-3.90;96.30;;;;;;5089726;28;19930;-80
2022/01/19 03:47:41;;;;;;;;;;;-4.60;96.30;;;;;;5088589;28;20093;-79
2022/01/19 03:50:08;;;;;;;;;;;-4.00;96.70;;;;;;5070458;28;19904;-79
2022/01/19 03:52:33;;;;;;;;;;;-3.90;96.70;;;;;;5084160;28;19915;-80
2022/01/19 03:55:05;;;;;;;;;;;-0.30;97.50;;;;;;5088253;28;20008;-79
2022/01/19 03:57:30;;;;;;;;;;;-1.20;97.00;;;;;;5087064;28;19907;-79
2022/01/19 03:59:56;;;;;;;;;;;-3.80;96.30;;;;;;5089388;28;20472;-80
2022/01/19 04:02:22;;;;;;;;;;;-2.90;96.30;;;;;;5085882;28;20432;-79
2022/01/19 04:05:07;;;;;;;;;;;-3.80;96.20;;;;;;5067513;28;20341;-79
2022/01/19 04:07:32;;;;;;;;;;;-3.80;96.20;;;;;;5066622;28;19969;-79
2022/01/19 04:09:58;;;;;;;;;;;-3.80;96.10;;;;;;5087735;28;19916;-79
2022/01/19 04:12:46;;;;;;;;;;;-3.90;96.10;;;;;;5087802;28;19912;-79
2022/01/19 04:15:15;;;;;;;;;;;-3.90;96.20;;;;;;5087792;28;20314;-78
2022/01/19 04:17:48;;;;;;;;;;;-4.00;96.30;;;;;;5090114;28;20155;-79
2022/01/19 04:20:14;;;;;;;;;;;-4.00;96.40;;;;;;5088791;28;19908;-79
2022/01/19 04:22:40;;;;;;;;;;;-4.00;96.50;;;;;;5065844;28;20048;-79
2022/01/19 04:25:06;;;;;;;;;;;-3.90;96.30;;;;;;5083243;28;19935;-79
2022/01/19 04:27:32;;;;;;;;;;;-4.00;96.30;;;;;;5082021;28;19904;-79
2022/01/19 04:30:09;;;;;;;;;;;-4.00;96.30;;;;;;5082165;28;19910;-79
2022/01/19 04:35:06;;;;;;;;;;;-4.20;96.70;;;;;;5082137;28;20014;-79
2022/01/19 04:37:50;;;;;;;;;;;-4.20;96.60;;;;;;5063491;28;19914;-79
2022/01/19 05:07:31;;;;;;;;;;;-4.40;96.80;;;;;;4940419;29;19914;-79
2022/01/19 05:15:24;;;;;;;;;;;-4.50;96.70;;;;;;4940590;29;20411;-79
2022/01/19 05:17:50;;;;;;;;;;;-4.50;96.80;;;;;;4940128;29;19911;-79
2022/01/19 05:20:16;;;;;;;;;;;-4.40;96.70;;;;;;4940039;29;20134;-78
2022/01/19 05:22:41;;;;;;;;;;;-4.50;96.60;;;;;;4963053;28;19918;-79
2022/01/19 05:25:07;;;;;;;;;;;-4.80;96.50;;;;;;4998297;28;20099;-79
2022/01/19 05:27:33;;;;;;;;;;;-4.50;96.80;;;;;;4981608;28;20160;-79
2022/01/19 05:29:58;;;;;;;;;;;-4.50;96.60;;;;;;5042531;28;20234;-79
2022/01/19 05:32:25;;;;;;;;;;;-4.50;96.30;;;;;;5062405;28;20108;-79
2022/01/19 05:34:51;;;;;;;;;;;-4.60;96.40;;;;;;5080851;28;19920;-78
2022/01/19 05:37:16;;;;;;;;;;;-4.70;96.60;;;;;;5081111;28;19911;-79
2022/01/19 05:39:42;;;;;;;;;;;-3.10;97.10;;;;;;5080922;28;19907;-79
2022/01/19 05:42:14;;;;;;;;;;;-4.70;96.80;;;;;;5079326;28;19956;-79
2022/01/19 05:44:41;;;;;;;;;;;-4.60;96.90;;;;;;5062376;28;19912;-79
2022/01/19 05:47:08;;;;;;;;;;;-4.60;96.70;;;;;;5067333;28;19915;-79
2022/01/19 05:49:36;;;;;;;;;;;-4.60;96.60;;;;;;5081710;28;19904;-79
2022/01/19 05:52:02;;;;;;;;;;;-4.70;96.60;;;;;;5099664;28;20283;-79
2022/01/19 05:54:27;;;;;;;;;;;-4.60;96.40;;;;;;5083425;28;20136;-80
2022/01/19 05:56:53;;;;;;;;;;;-4.60;96.60;;;;;;5067434;28;20150;-79
2022/01/19 05:59:21;;;;;;;;;;;-4.70;96.60;;;;;;5083406;28;19918;-79
2022/01/19 06:01:47;;;;;;;;;;;-4.60;96.60;;;;;;5082665;28;19904;-79
2022/01/19 06:04:18;;;;;;;;;;;-2.10;97.10;;;;;;5081200;28;19946;-79
2022/01/19 06:06:44;;;;;;;;;;;-4.60;96.30;;;;;;5062796;28;19944;-78
2022/01/19 06:09:22;;;;;;;;;;;-4.60;96.30;;;;;;5080762;28;19908;-79
2022/01/19 06:11:48;;;;;;;;;;;-4.60;96.50;;;;;;5061311;28;20207;-79
2022/01/19 06:14:16;;;;;;;;;;;-4.60;96.30;;;;;;5062296;28;20104;-79
2022/01/19 06:16:45;;;;;;;;;;;-4.70;96.60;;;;;;5062720;28;20328;-79
2022/01/19 06:19:10;;;;;;;;;;;-4.60;96.40;;;;;;5063417;28;20467;-79
2022/01/19 06:21:36;;;;;;;;;;;-4.70;96.40;;;;;;5080875;28;19908;-79
2022/01/19 06:24:02;;;;;;;;;;;-4.70;96.40;;;;;;5081631;28;20114;-78
2022/01/19 06:26:28;;;;;;;;;;;-4.70;96.40;;;;;;5081139;28;19956;-79
2022/01/19 06:28:54;;;;;;;;;;;-4.60;96.10;;;;;;5082343;28;20263;-78
2022/01/19 06:31:20;;;;;;;;;;;-4.60;96.20;;;;;;5087635;28;19908;-79
2022/01/19 06:33:45;;;;;;;;;;;-4.60;96.10;;;;;;5088461;28;19908;-79
2022/01/19 06:36:12;;;;;;;;;;;-4.70;96.30;;;;;;5081453;28;19947;-79
2022/01/19 06:38:38;;;;;;;;;;;-4.80;96.30;;;;;;5062026;28;20128;-79
2022/01/19 06:41:04;;;;;;;;;;;-4.70;96.40;;;;;;5062067;28;19932;-79
2022/01/19 06:43:29;;;;;;;;;;;-4.70;96.50;;;;;;5080339;28;20302;-78
2022/01/19 06:45:56;;;;;;;;;;;-4.80;96.20;;;;;;5080337;28;19927;-79
2022/01/19 06:48:22;;;;;;;;;;;-4.80;96.40;;;;;;5079843;28;19939;-79
2022/01/19 06:50:47;;;;;;;;;;;-4.80;96.50;;;;;;5080482;28;20008;-79
2022/01/19 06:53:15;;;;;;;;;;;-3.30;96.70;;;;;;5062612;28;19961;-79
2022/01/19 06:55:41;;;;;;;;;;;-4.70;96.40;;;;;;5080708;28;20216;-79
2022/01/19 06:58:07;;;;;;;;;;;-4.20;96.60;;;;;;5062372;28;20007;-79
2022/01/19 07:00:32;;;;;;;;;;;-4.80;96.10;;;;;;5080725;28;19953;-79
2022/01/19 07:02:59;;;;;;;;;;;-4.80;96.20;;;;;;5081088;28;19911;-79
2022/01/19 07:05:24;;;;;;;;;;;-4.80;96.10;;;;;;5062911;28;20596;-79
2022/01/19 07:07:52;;;;;;;;;;;-4.60;96.20;;;;;;5063066;28;19996;-81
2022/01/19 07:10:17;;;;;;;;;;;-4.50;96.20;;;;;;5080639;28;20163;-79
2022/01/19 07:12:43;;;;;;;;;;;-3.50;96.10;;;;;;5061883;28;19920;-79
2022/01/19 07:15:09;;;;;;;;;;;-4.30;95.80;;;;;;5081864;28;19904;-78
2022/01/19 07:17:35;;;;;;;;;;;-4.30;95.60;;;;;;5082311;28;19904;-78
2022/01/19 07:20:02;;;;;;;;;;;-4.20;95.40;;;;;;5084903;28;19995;-79
2022/01/19 07:22:28;;;;;;;;;;;-4.10;95.30;;;;;;5084056;28;20112;-78
2022/01/19 07:24:54;;;;;;;;;;;-4.20;95.10;;;;;;5082809;28;20379;-79
2022/01/19 07:27:19;;;;;;;;;;;-4.30;95.10;;;;;;5081324;28;19944;-79
2022/01/19 07:29:45;;;;;;;;;;;-2.90;95.50;;;;;;5084219;28;20356;-79
2022/01/19 07:32:14;;;;;;;;;;;-3.20;95.20;;;;;;5066155;28;19935;-79
2022/01/19 07:34:40;;;;;;;;;;;-2.70;95.30;;;;;;5066265;28;20113;-79
2022/01/19 07:37:06;;;;;;;;;;;-3.80;94.80;;;;;;5083719;28;19912;-79
2022/01/19 07:39:31;;;;;;;;;;;-3.70;94.70;;;;;;5083359;28;19908;-79
2022/01/19 07:41:57;;;;;;;;;;;-3.60;94.40;;;;;;5064837;28;20060;-79
2022/01/19 07:44:23;;;;;;;;;;;-3.30;94.40;;;;;;5064913;28;20568;-78
2022/01/19 07:46:51;;;;;;;;;;;-3.40;94.10;;;;;;5064750;28;19911;-79
2022/01/19 07:49:17;;;;;;;;;;;-3.30;94.10;;;;;;5083456;28;20474;-79
2022/01/19 07:51:42;;;;;;;;;;;-3.20;93.90;;;;;;5082728;28;19915;-79
2022/01/19 07:54:08;;;;;;;;;;;-3.10;93.50;;;;;;5065211;28;19912;-79
2022/01/19 07:56:37;;;;;;;;;;;-3.00;93.30;;;;;;5065466;28;20406;-79
2022/01/19 07:59:03;;;;;;;;;;;-3.00;93.30;;;;;;5082981;28;19915;-79
2022/01/19 08:01:31;;;;;;;;;;;-2.90;93.10;;;;;;5048324;28;19908;-79
2022/01/19 08:03:57;;;;;;;;;;;-2.80;93.00;;;;;;5083730;28;19986;-79
2022/01/19 08:06:23;;;;;;;;;;;-2.60;92.70;;;;;;5083551;28;19904;-79
2022/01/19 08:08:49;;;;;;;;;;;-2.60;92.60;;;;;;5083086;28;20196;-79
2022/01/19 08:11:15;;;;;;;;;;;-2.50;92.70;;;;;;5083342;28;20007;-78
2022/01/19 08:13:40;;;;;;;;;;;-2.30;92.20;;;;;;5082540;28;20019;-79
2022/01/19 08:16:06;;;;;;;;;;;-2.20;91.60;;;;;;5083474;28;20247;-79
2022/01/19 08:18:32;;;;;;;;;;;-2.10;91.20;;;;;;5080898;28;20012;-79
2022/01/19 08:20:57;;;;;;;;;;;-2.00;91.00;;;;;;5083290;28;19904;-79
2022/01/19 08:23:23;;;;;;;;;;;-1.90;90.80;;;;;;5082976;28;19911;-79
2022/01/19 08:25:48;;;;;;;;;;;-1.90;90.80;;;;;;5064798;28;20306;-79
2022/01/19 08:28:14;;;;;;;;;;;-1.80;90.90;;;;;;5096022;28;19915;-79
2022/01/19 08:30:41;;;;;;;;;;;-1.80;91.00;;;;;;5080990;28;19904;-79
2022/01/19 08:33:06;;;;;;;;;;;-1.60;90.90;;;;;;5099733;28;20141;-79
2022/01/19 08:35:32;;;;;;;;;;;-1.40;90.80;;;;;;5087609;28;19904;-79
2022/01/19 08:37:57;;;;;;;;;;;-0.50;90.10;;;;;;5085727;28;20255;-79
2022/01/19 08:40:28;;;;;;;;;;;-1.30;89.60;;;;;;5088359;28;19943;-80
2022/01/19 08:42:54;;;;;;;;;;;-1.20;90.00;;;;;;5089819;28;19904;-79
2022/01/19 08:45:21;;;;;;;;;;;-1.10;90.70;;;;;;5085033;28;20208;-79
2022/01/19 08:47:46;;;;;;;;;;;-0.90;91.10;;;;;;5082887;28;19969;-79
2022/01/19 08:50:13;;;;;;;;;;;-0.80;90.70;;;;;;5064094;28;19914;-79
2022/01/19 08:52:39;;;;;;;;;;;-0.70;90.40;;;;;;5063735;28;19912;-79
2022/01/19 08:55:06;;;;;;;;;;;-0.60;90.30;;;;;;5062869;28;19912;-79
2022/01/19 08:57:32;;;;;;;;;;;-0.60;90.30;;;;;;5081691;28;19904;-79
2022/01/19 08:59:58;;;;;;;;;;;-0.30;90.10;;;;;;5082297;28;19904;-79
2022/01/19 09:02:24;;;;;;;;;;;0.70;89.70;;;;;;5081238;28;20421;-79
2022/01/19 09:04:49;;;;;;;;;;;0.00;88.60;;;;;;5082228;28;20406;-79
2022/01/19 09:07:15;;;;;;;;;;;0.30;88.80;;;;;;5082099;28;20402;-79
2022/01/19 09:09:41;;;;;;;;;;;0.40;87.90;;;;;;5081851;28;19908;-79
2022/01/19 09:12:07;;;;;;;;;;;0.50;86.50;;;;;;5081045;28;19919;-79
2022/01/19 09:14:33;;;;;;;;;;;0.50;86.20;;;;;;5062964;28;19912;-79
2022/01/19 09:16:58;;;;;;;;;;;0.60;86.40;;;;;;5081140;28;20183;-79
2022/01/19 09:19:25;;;;;;;;;;;0.70;85.30;;;;;;5081254;28;19904;-79
2022/01/19 09:21:51;;;;;;;;;;;0.90;85.10;;;;;;5080844;28;20528;-80
2022/01/19 09:24:17;;;;;;;;;;;1.10;84.60;;;;;;5062836;28;19904;-79
2022/01/19 09:26:44;;;;;;;;;;;1.60;84.10;;;;;;5081187;28;19907;-79
2022/01/19 09:29:09;;;;;;;;;;;1.60;84.40;;;;;;5080661;28;19930;-79
2022/01/19 09:31:35;;;;;;;;;;;1.50;83.10;;;;;;5080779;28;20537;-79
2022/01/19 09:34:10;;;;;;;;;;;0.80;81.70;;;;;;5080916;28;20159;-79
2022/01/19 09:36:44;;;;;;;;;;;1.70;81.10;;;;;;5081399;28;19903;-79
2022/01/19 09:39:10;;;;;;;;;;;1.90;80.00;;;;;;5081305;28;20196;-79
2022/01/19 09:41:36;;;;;;;;;;;2.00;79.50;;;;;;5080617;28;20403;-79
2022/01/19 09:44:01;;;;;;;;;;;2.20;79.80;;;;;;5080177;28;19948;-78
2022/01/19 09:46:29;;;;;;;;;;;2.20;77.70;;;;;;5062602;28;19904;-79
2022/01/19 09:48:55;;;;;;;;;;;2.20;77.00;;;;;;5081112;28;19911;-79
2022/01/19 09:51:21;;;;;;;;;;;2.30;77.00;;;;;;5080024;28;19972;-79
2022/01/19 09:53:47;;;;;;;;;;;2.50;79.00;;;;;;5080849;28;20014;-79
2022/01/19 09:56:16;;;;;;;;;;;2.60;78.20;;;;;;5080675;28;19904;-79
2022/01/19 09:58:43;;;;;;;;;;;2.80;75.30;;;;;;5080628;28;20370;-79
2022/01/19 10:01:09;;;;;;;;;;;2.90;73.30;;;;;;5080922;28;20006;-79
2022/01/19 10:03:34;;;;;;;;;;;2.80;73.60;;;;;;5062343;28;19903;-79
2022/01/19 10:06:02;;;;;;;;;;;3.00;73.40;;;;;;5080571;28;20129;-79
2022/01/19 10:08:42;;;;;;;;;;;3.10;74.10;;;;;;5062011;28;20308;-80
2022/01/19 10:17:12;;;;;;;;;;;3.50;72.20;;;;;;4958687;28;19964;-79
2022/01/19 10:19:41;;;;;;;;;;;3.60;72.30;;;;;;4942366;28;19965;-80
2022/01/19 10:22:25;;;;;;;;;;;3.60;72.30;;;;;;4959089;28;19949;-79
2022/01/19 10:25:02;;;;;;;;;;;3.80;74.00;;;;;;4942290;28;20012;-79
2022/01/19 10:27:35;;;;;;;;;;;3.70;72.40;;;;;;4940799;28;20005;-79
2022/01/19 10:30:03;;;;;;;;;;;3.70;72.30;;;;;;4959396;28;20269;-79
2022/01/19 10:32:33;;;;;;;;;;;3.70;72.50;;;;;;4960006;28;19921;-79
2022/01/19 10:35:12;;;;;;;;;;;3.90;71.70;;;;;;4955132;28;20413;-79
2022/01/19 10:37:37;;;;;;;;;;;3.90;71.60;;;;;;4942261;28;20054;-79
2022/01/19 10:40:05;;;;;;;;;;;4.10;71.00;;;;;;4959452;28;19912;-79
2022/01/19 10:42:32;;;;;;;;;;;4.10;70.30;;;;;;4943013;28;20316;-79
2022/01/19 10:44:59;;;;;;;;;;;4.30;73.20;;;;;;4958333;28;19910;-79
2022/01/19 10:47:37;;;;;;;;;;;4.40;72.80;;;;;;4960680;28;19906;-79
2022/01/19 10:50:03;;;;;;;;;;;4.30;71.40;;;;;;4962442;28;19905;-79
2022/01/19 10:52:30;;;;;;;;;;;4.40;70.10;;;;;;5078466;28;19916;-79
2022/01/19 10:54:59;;;;;;;;;;;4.60;72.10;;;;;;5087320;28;20344;-79
2022/01/19 10:57:25;;;;;;;;;;;4.80;71.40;;;;;;5082094;28;20185;-79
2022/01/19 10:59:51;;;;;;;;;;;4.70;69.30;;;;;;5082412;28;20002;-79
2022/01/19 11:02:17;;;;;;;;;;;4.80;71.20;;;;;;5081311;28;20441;-79
2022/01/19 11:04:45;;;;;;;;;;;4.90;71.60;;;;;;5066529;28;19911;-79
2022/01/19 11:07:16;;;;;;;;;;;5.00;70.70;;;;;;5085190;28;20185;-79
2022/01/19 11:09:46;;;;;;;;;;;5.20;69.30;;;;;;5084946;28;19970;-79
2022/01/19 11:12:15;;;;;;;;;;;5.30;70.30;;;;;;5087273;28;19912;-79
2022/01/19 11:14:41;;;;;;;;;;;5.20;67.30;;;;;;5070830;28;20193;-79
2022/01/19 11:17:09;;;;;;;;;;;5.40;68.30;;;;;;5094727;28;19904;-79
2022/01/19 11:19:38;;;;;;;;;;;5.40;66.90;;;;;;5076769;28;20058;-79
2022/01/19 11:22:34;;;;;;;;;;;5.50;68.90;;;;;;5075999;28;19904;-79
2022/01/19 11:25:11;;;;;;;;;;;5.60;67.10;;;;;;5071126;28;20387;-79
2022/01/19 11:27:38;;;;;;;;;;;5.70;68.10;;;;;;5091813;28;19995;-79
2022/01/19 11:30:10;;;;;;;;;;;5.80;67.40;;;;;;5091182;28;19962;-79
2022/01/19 11:32:35;;;;;;;;;;;4.70;62.80;;;;;;5090155;28;19976;-78
2022/01/19 11:35:03;;;;;;;;;;;6.10;64.90;;;;;;5089620;28;20011;-80
2022/01/19 11:37:41;;;;;;;;;;;6.10;65.00;;;;;;5071013;28;20445;-79
2022/01/19 11:40:16;;;;;;;;;;;6.20;62.70;;;;;;5087471;28;19904;-80
2022/01/19 11:42:43;;;;;;;;;;;6.20;59.80;;;;;;5085166;28;19948;-79
2022/01/19 11:45:10;;;;;;;;;;;6.00;59.20;;;;;;5067973;28;20007;-79
2022/01/19 11:47:38;;;;;;;;;;;8.50;59.30;;;;;;5084056;28;19908;-79
2022/01/19 11:50:13;;;;;;;;;;;6.40;57.40;;;;;;5083955;28;19908;-79
2022/01/19 11:52:41;;;;;;;;;;;6.50;56.80;;;;;;5081733;28;20425;-78
2022/01/19 11:55:09;;;;;;;;;;;6.70;57.60;;;;;;5084241;28;19908;-80
2022/01/19 11:57:35;;;;;;;;;;;7.00;58.30;;;;;;5083799;28;20010;-77
2022/01/19 12:00:04;;;;;;;;;;;7.20;59.80;;;;;;5083672;28;19908;-79
2022/01/19 12:02:36;;;;;;;;;;;7.20;56.40;;;;;;5065097;28;19966;-78
2022/01/19 12:05:07;;;;;;;;;;;7.30;57.10;;;;;;5083293;28;20392;-79
2022/01/19 12:07:43;;;;;;;;;;;7.40;56.70;;;;;;5064848;28;20371;-79
2022/01/19 12:10:12;;;;;;;;;;;7.50;57.40;;;;;;5082784;28;20018;-79
2022/01/19 12:12:55;;;;;;;;;;;7.50;55.30;;;;;;5083205;28;19916;-79
2022/01/19 12:15:39;;;;;;;;;;;7.60;53.70;;;;;;5063905;28;19935;-78
2022/01/19 12:18:10;;;;;;;;;;;7.70;52.70;;;;;;5082599;28;19939;-79
2022/01/19 12:20:48;;;;;;;;;;;7.60;52.90;;;;;;5082896;28;19978;-79
2022/01/19 12:23:28;;;;;;;;;;;7.70;52.50;;;;;;5064727;28;20572;-79
2022/01/19 12:25:54;;;;;;;;;;;7.70;51.40;;;;;;5082595;28;19934;-80
2022/01/19 12:28:39;;;;;;;;;;;7.80;50.50;;;;;;5083615;28;20421;-79
2022/01/19 12:31:23;;;;;;;;;;;7.90;50.80;;;;;;5063976;28;19904;-79
2022/01/19 12:34:04;;;;;;;;;;;7.90;50.20;;;;;;5063974;28;19912;-79
2022/01/19 12:36:49;;;;;;;;;;;7.70;48.80;;;;;;5082274;28;19912;-80
2022/01/19 12:39:26;;;;;;;;;;;7.50;50.20;;;;;;5082383;28;20084;-79
2022/01/19 12:41:55;;;;;;;;;;;7.60;49.30;;;;;;5064655;28;19997;-80
2022/01/19 12:44:41;;;;;;;;;;;7.30;49.60;;;;;;5083761;28;19912;-79
2022/01/19 12:47:27;;;;;;;;;;;7.40;50.70;;;;;;5064322;28;20503;-79
2022/01/19 12:50:11;;;;;;;;;;;7.60;51.10;;;;;;4983707;28;19959;-79
2022/01/19 12:52:41;;;;;;;;;;;7.70;50.80;;;;;;5000096;28;20087;-79
2022/01/19 12:55:17;;;;;;;;;;;7.90;50.40;;;;;;5000215;28;20000;-80
2022/01/19 12:57:43;;;;;;;;;;;7.90;50.40;;;;;;5002180;28;19963;-80
2022/01/19 13:00:10;;;;;;;;;;;8.00;50.50;;;;;;5005384;28;19909;-80
2022/01/19 13:02:36;;;;;;;;;;;8.10;49.80;;;;;;5003048;28;20531;-80
2022/01/19 13:05:05;;;;;;;;;;;7.50;50.10;;;;;;4999957;28;19913;-80
2022/01/19 13:07:34;;;;;;;;;;;7.80;50.40;;;;;;4982392;28;20113;-79
2022/01/19 13:15:39;;;;;;;;;;;8.10;49.50;;;;;;4998877;28;20355;-79
2022/01/19 13:18:04;;;;;;;;;;;8.10;49.40;;;;;;5002500;28;19905;-80
2022/01/19 13:20:33;;;;;;;;;;;7.90;49.40;;;;;;4982293;28;20000;-80
2022/01/19 13:22:58;;;;;;;;;;;7.80;49.90;;;;;;4998883;28;19976;-79
2022/01/19 13:25:29;;;;;;;;;;;7.40;50.80;;;;;;4998143;28;20348;-80
2022/01/19 13:27:56;;;;;;;;;;;7.50;51.00;;;;;;5051178;28;20256;-79
2022/01/19 13:30:22;;;;;;;;;;;7.40;51.00;;;;;;5081468;28;19975;-80
2022/01/19 13:32:51;;;;;;;;;;;7.50;51.20;;;;;;5081441;28;19912;-80
2022/01/19 13:35:20;;;;;;;;;;;7.60;51.00;;;;;;5081706;28;20446;-80
2022/01/19 13:37:51;;;;;;;;;;;7.70;51.40;;;;;;5063279;28;20189;-79
2022/01/19 13:40:21;;;;;;;;;;;7.80;52.80;;;;;;5081713;28;19976;-79
2022/01/19 13:42:53;;;;;;;;;;;7.90;53.70;;;;;;5063260;28;19986;-80
2022/01/19 13:48:21;;;;;;;;;;;8.00;53.60;;;;;;5081474;28;19946;-79
2022/01/19 13:50:48;;;;;;;;;;;8.10;53.20;;;;;;5062721;28;19904;-79
2022/01/19 13:53:24;;;;;;;;;;;8.20;52.80;;;;;;5082179;28;20101;-80
2022/01/19 13:55:50;;;;;;;;;;;8.20;53.10;;;;;;5087466;28;20083;-80
2022/01/19 13:58:16;;;;;;;;;;;8.30;52.80;;;;;;5094584;28;19908;-79
2022/01/19 14:00:51;;;;;;;;;;;8.30;52.70;;;;;;5094036;28;19975;-79
2022/01/19 14:03:17;;;;;;;;;;;8.30;52.10;;;;;;5076976;28;19937;-79
2022/01/19 14:05:44;;;;;;;;;;;8.30;52.00;;;;;;5065186;28;19977;-80
2022/01/19 14:08:10;;;;;;;;;;;8.40;52.40;;;;;;5064557;28;20393;-79
2022/01/19 14:10:48;;;;;;;;;;;8.40;52.10;;;;;;5081673;28;19977;-80
2022/01/19 14:13:26;;;;;;;;;;;8.50;51.90;;;;;;5062613;28;20374;-79
2022/01/19 14:16:18;;;;;;;;;;;8.50;51.50;;;;;;5080622;28;20375;-79
2022/01/19 14:19:03;;;;;;;;;;;8.60;51.70;;;;;;5080304;28;19999;-79
2022/01/19 14:21:29;;;;;;;;;;;8.70;51.00;;;;;;5080921;28;19904;-80
2022/01/19 14:23:58;;;;;;;;;;;8.60;51.00;;;;;;5080391;28;19907;-79
2022/01/19 14:26:25;;;;;;;;;;;7.00;50.60;;;;;;5061933;28;20486;-79
2022/01/19 14:29:09;;;;;;;;;;;8.80;51.60;;;;;;5080085;28;20298;-79
2022/01/19 14:31:46;;;;;;;;;;;8.80;51.50;;;;;;5063495;28;19947;-79
2022/01/19 14:34:11;;;;;;;;;;;9.00;51.40;;;;;;5062885;28;19912;-79
2022/01/19 14:36:37;;;;;;;;;;;9.20;50.20;;;;;;5063309;28;19915;-79
2022/01/19 14:39:03;;;;;;;;;;;9.20;49.00;;;;;;5063911;28;19908;-79
2022/01/19 14:41:31;;;;;;;;;;;9.10;49.80;;;;;;5080975;28;19991;-79
2022/01/19 14:44:03;;;;;;;;;;;9.00;50.30;;;;;;5080851;28;19915;-79
2022/01/19 14:46:39;;;;;;;;;;;9.00;49.70;;;;;;5081878;28;20093;-79
2022/01/19 14:49:05;;;;;;;;;;;8.80;49.80;;;;;;5062871;28;20008;-80
2022/01/19 14:51:37;;;;;;;;;;;8.80;50.00;;;;;;5080784;28;19999;-79
2022/01/19 14:54:16;;;;;;;;;;;8.70;50.40;;;;;;5062809;28;20094;-79
2022/01/19 14:56:43;;;;;;;;;;;8.40;50.30;;;;;;5081597;28;19962;-79
2022/01/19 14:59:14;;;;;;;;;;;8.10;51.50;;;;;;5064382;28;20023;-80
2022/01/19 15:01:41;;;;;;;;;;;7.90;51.80;;;;;;5083509;28;19912;-79
2022/01/19 15:04:07;;;;;;;;;;;7.40;52.70;;;;;;5090255;28;19904;-79
2022/01/19 15:06:33;;;;;;;;;;;7.10;53.90;;;;;;5086308;28;19958;-80
2022/01/19 15:08:59;;;;;;;;;;;6.90;54.70;;;;;;5081174;28;19953;-79
2022/01/19 15:11:25;;;;;;;;;;;6.40;55.60;;;;;;5079843;28;19915;-79
2022/01/19 15:13:57;;;;;;;;;;;5.90;57.80;;;;;;5080173;28;20351;-79
2022/01/19 15:16:25;;;;;;;;;;;5.50;60.30;;;;;;5061263;28;19954;-79
2022/01/19 15:18:51;;;;;;;;;;;5.00;62.90;;;;;;5079297;28;20224;-79
2022/01/19 15:21:17;;;;;;;;;;;4.70;65.60;;;;;;5080042;28;19958;-80
2022/01/19 15:23:46;;;;;;;;;;;4.10;67.40;;;;;;5079613;28;19934;-79
2022/01/19 15:26:12;;;;;;;;;;;3.70;68.50;;;;;;5079156;28;20195;-80
2022/01/19 15:28:37;;;;;;;;;;;3.40;70.70;;;;;;5080262;28;20006;-80
2022/01/19 15:31:07;;;;;;;;;;;3.00;72.50;;;;;;5079496;28;19904;-79
2022/01/19 15:33:33;;;;;;;;;;;0.50;73.50;;;;;;5060165;28;20054;-79
2022/01/19 15:36:01;;;;;;;;;;;2.80;76.20;;;;;;5061149;28;20225;-79
2022/01/19 15:38:26;;;;;;;;;;;2.40;77.20;;;;;;5079194;28;19923;-79
2022/01/19 15:40:55;;;;;;;;;;;2.10;78.20;;;;;;5059796;28;19904;-79
2022/01/19 15:43:21;;;;;;;;;;;1.80;78.90;;;;;;5079346;28;19978;-79
2022/01/19 15:45:47;;;;;;;;;;;-0.90;77.90;;;;;;5060629;28;20369;-79
2022/01/19 15:48:16;;;;;;;;;;;1.70;81.50;;;;;;5079262;28;19964;-79
2022/01/19 15:50:46;;;;;;;;;;;1.60;81.60;;;;;;5082270;28;20321;-79
2022/01/19 15:53:11;;;;;;;;;;;1.50;81.90;;;;;;5080383;28;19990;-79
2022/01/19 15:55:40;;;;;;;;;;;1.40;82.60;;;;;;5082525;28;19958;-78
2022/01/19 15:58:06;;;;;;;;;;;1.40;82.70;;;;;;5082342;28;19904;-79
2022/01/19 16:00:32;;;;;;;;;;;1.30;83.70;;;;;;5082196;28;19904;-79
2022/01/19 16:02:58;;;;;;;;;;;1.20;84.20;;;;;;5082506;28;19916;-79
2022/01/19 16:05:25;;;;;;;;;;;1.10;84.80;;;;;;5082219;28;19904;-79
2022/01/19 16:07:50;;;;;;;;;;;1.10;85.40;;;;;;5082405;28;19912;-79
2022/01/19 16:10:16;;;;;;;;;;;1.00;85.40;;;;;;5082199;28;19968;-78